TimeEDT,TemperatureF,Dew PointF,Humidity,Sea Level PressureIn,VisibilityMPH,Wind Direction,Wind SpeedMPH,Gust SpeedMPH,PrecipitationIn,Events,Conditions,WindDirDegrees,DateUTC
12:51 AM,52.0,51.1,97,29.78,8.0,ENE,4.6,-,N/A,Fog,Shallow Fog,70,2011-09-29 04:51:00
1:51 AM,54.0,53.1,97,29.78,9.0,Calm,Calm,-,0.00,Rain,Light Rain,0,2011-09-29 05:51:00
2:51 AM,55.0,52.0,89,29.78,10.0,Calm,Calm,-,0.00,,Overcast,0,2011-09-29 06:51:00
3:51 AM,55.4,53.6,94,29.78,5.0,Calm,Calm,-,N/A,Rain,Light Rain,0,2011-09-29 07:51:00
4:51 AM,55.0,53.1,93,29.76,10.0,South,5.8,-,0.00,,Overcast,170,2011-09-29 08:51:00
5:51 AM,55.9,52.0,87,29.76,10.0,South,4.6,-,N/A,,Overcast,190,2011-09-29 09:51:00
6:51 AM,54.0,51.1,90,29.76,10.0,SW,6.9,-,N/A,,Scattered Clouds,220,2011-09-29 10:51:00
7:51 AM,53.1,51.1,93,29.76,7.0,SSW,5.8,-,N/A,Fog,Shallow Fog,200,2011-09-29 11:51:00
8:02 AM,53.6,51.8,94,29.76,7.0,South,5.8,-,N/A,,Mostly Cloudy,190,2011-09-29 12:02:00
8:51 AM,55.4,51.8,88,29.77,7.0,SW,8.1,-,N/A,,Mostly Cloudy,220,2011-09-29 12:51:00
9:03 AM,55.4,51.8,88,29.77,8.0,SW,9.2,-,N/A,,Mostly Cloudy,230,2011-09-29 13:03:00
9:40 AM,55.4,51.8,88,29.76,10.0,SW,11.5,18.4,N/A,,Mostly Cloudy,220,2011-09-29 13:40:00
9:51 AM,57.0,51.1,81,29.76,10.0,WSW,12.7,-,N/A,,Mostly Cloudy,240,2011-09-29 13:51:00
9:58 AM,57.2,50.0,77,29.77,10.0,SW,12.7,-,N/A,,Mostly Cloudy,230,2011-09-29 13:58:00
10:36 AM,57.2,50.0,77,29.75,10.0,SW,13.8,21.9,N/A,,Overcast,230,2011-09-29 14:36:00
10:51 AM,59.0,48.9,69,29.75,10.0,SW,16.1,25.3,N/A,,Mostly Cloudy,230,2011-09-29 14:51:00
11:51 AM,57.0,48.9,74,29.75,10.0,West,10.4,-,N/A,,Overcast,260,2011-09-29 15:51:00
12:51 PM,57.9,50.0,75,29.75,10.0,SW,10.4,-,N/A,,Overcast,230,2011-09-29 16:51:00
1:51 PM,57.9,50.0,75,29.73,10.0,SW,15.0,24.2,N/A,,Overcast,230,2011-09-29 17:51:00
2:44 PM,60.8,51.8,72,29.73,10.0,SW,11.5,-,N/A,,Overcast,230,2011-09-29 18:44:00
2:51 PM,60.1,51.1,72,29.72,10.0,SW,10.4,-,N/A,,Overcast,220,2011-09-29 18:51:00
3:51 PM,59.0,50.0,72,29.71,10.0,WSW,15.0,20.7,N/A,,Overcast,240,2011-09-29 19:51:00
4:51 PM,60.8,50.0,68,29.69,10.0,SW,11.5,-,N/A,,Mostly Cloudy,220,2011-09-29 20:51:00
5:51 PM,60.1,50.0,69,29.68,10.0,SW,12.7,-,N/A,,Overcast,220,2011-09-29 21:51:00
6:51 PM,57.2,50.0,77,29.69,10.0,SSW,5.8,-,N/A,,Mostly Cloudy,210,2011-09-29 22:51:00
7:51 PM,57.0,52.0,83,29.67,10.0,South,6.9,-,0.01,Rain,Light Rain,180,2011-09-29 23:51:00
8:51 PM,55.9,52.0,87,29.66,10.0,SSE,5.8,-,0.00,Rain,Light Rain,160,2011-09-30 00:51:00
9:51 PM,55.9,53.1,90,29.62,7.0,SSE,8.1,-,0.01,Rain,Light Rain,160,2011-09-30 01:51:00
10:51 PM,57.0,54.0,89,29.59,9.0,South,10.4,-,0.03,Rain,Light Rain,170,2011-09-30 02:51:00
11:43 PM,57.2,55.4,94,29.58,8.0,South,6.9,-,0.01,,Overcast,190,2011-09-30 03:43:00
11:51 PM,57.0,55.0,93,29.58,8.0,South,6.9,-,0.01,,Overcast,190,2011-09-30 03:51:00